Time;durP1;ratioP1;P1;durP2;ratioP2;P2;SDS_P1;SDS_P2;PMS_P1;PMS_P2;Temp;Humidity;BMP_temperature;BMP_pressure;BME280_temperature;BME280_humidity;BME280_pressure;Samples;Min_cycle;Max_cycle;Signal;HPM_P1;HPM_P2
2024/01/26 00:00:33;;;;;;;5.53;3.23;;;21.60;1.00;;;;;;2602637;54;20169;-63
2024/01/26 00:02:59;;;;;;;3.07;2.87;;;21.70;1.00;;;;;;2600994;54;20187;-60
2024/01/26 00:05:24;;;;;;;3.77;2.70;;;21.60;1.00;;;;;;2602215;54;20182;-62
2024/01/26 00:07:50;;;;;;;2.63;2.43;;;21.60;1.00;;;;;;2603750;47;20281;-62
2024/01/26 00:10:16;;;;;;;3.57;2.57;;;21.60;1.00;;;;;;2603920;54;20199;-62
2024/01/26 00:12:42;;;;;;;2.30;2.10;;;21.60;1.00;;;;;;2603835;54;20167;-62
2024/01/26 00:15:08;;;;;;;2.80;2.60;;;21.60;1.00;;;;;;2604115;54;20249;-62
2024/01/26 00:17:34;;;;;;;3.60;2.67;;;21.60;1.00;;;;;;2603689;54;20474;-62
2024/01/26 00:19:59;;;;;;;3.70;3.07;;;21.60;1.00;;;;;;2603542;47;20428;-62
2024/01/26 00:22:25;;;;;;;2.70;2.47;;;21.60;1.00;;;;;;2604223;39;20728;-62
2024/01/26 00:24:51;;;;;;;3.00;2.80;;;21.60;1.00;;;;;;2604970;39;21022;-62
2024/01/26 00:27:17;;;;;;;2.87;2.67;;;21.50;1.00;;;;;;2603855;47;20891;-63
2024/01/26 00:29:42;;;;;;;2.30;2.20;;;21.50;1.00;;;;;;2604484;39;21409;-63
2024/01/26 00:32:09;;;;;;;2.37;2.17;;;21.50;1.00;;;;;;2603273;47;20205;-62
2024/01/26 00:34:35;;;;;;;3.37;2.90;;;21.50;1.00;;;;;;2602077;54;20185;-63
2024/01/26 00:37:02;;;;;;;2.60;2.40;;;21.50;1.00;;;;;;2603136;47;21842;-62
2024/01/26 00:39:28;;;;;;;3.30;2.90;;;21.50;1.00;;;;;;2604003;54;20416;-63
2024/01/26 00:41:53;;;;;;;2.97;2.50;;;21.50;1.00;;;;;;2604524;39;20815;-63
2024/01/26 00:44:19;;;;;;;3.10;2.80;;;21.40;1.00;;;;;;2605905;54;20185;-65
2024/01/26 00:46:45;;;;;;;2.77;2.57;;;21.40;1.00;;;;;;2606197;54;20182;-62
2024/01/26 00:49:10;;;;;;;2.93;2.73;;;21.40;1.00;;;;;;2604590;47;21249;-62
2024/01/26 00:51:37;;;;;;;2.70;2.50;;;21.40;1.00;;;;;;2605688;54;20266;-62
2024/01/26 00:54:03;;;;;;;2.20;2.00;;;21.40;1.00;;;;;;2607288;31;20609;-62
2024/01/26 00:56:28;;;;;;;3.17;2.87;;;21.40;1.00;;;;;;2606537;47;20434;-66
2024/01/26 00:58:54;;;;;;;3.20;2.90;;;21.40;1.00;;;;;;2606573;54;20165;-64
2024/01/26 01:01:20;;;;;;;2.37;2.17;;;21.40;1.00;;;;;;2605777;54;20159;-62
2024/01/26 01:03:45;;;;;;;2.17;2.07;;;21.40;1.00;;;;;;2605337;47;20929;-62
2024/01/26 01:06:11;;;;;;;2.20;2.10;;;21.40;1.00;;;;;;2604586;54;20185;-62
2024/01/26 01:08:37;;;;;;;2.97;2.77;;;21.40;1.00;;;;;;2603909;54;20317;-63
2024/01/26 01:11:02;;;;;;;3.00;2.70;;;21.40;1.00;;;;;;2604881;54;20162;-64
2024/01/26 01:13:28;;;;;;;2.63;2.43;;;21.40;1.00;;;;;;2603735;47;21673;-62
2024/01/26 01:15:54;;;;;;;3.20;2.90;;;21.40;1.00;;;;;;2605145;54;20695;-63
2024/01/26 01:18:20;;;;;;;7.90;3.23;;;21.40;1.00;;;;;;2604363;54;20259;-63
2024/01/26 01:20:46;;;;;;;2.87;2.57;;;21.40;1.00;;;;;;2604193;54;20155;-62
2024/01/26 01:23:13;;;;;;;3.03;2.83;;;21.30;1.00;;;;;;2603608;54;21822;-63
2024/01/26 01:25:38;;;;;;;2.70;2.50;;;21.40;1.00;;;;;;2604580;54;20530;-61
2024/01/26 01:28:04;;;;;;;2.60;2.40;;;21.30;1.00;;;;;;2603973;54;20419;-61
2024/01/26 01:30:30;;;;;;;3.47;3.17;;;21.30;1.00;;;;;;2604372;54;21176;-61
2024/01/26 01:32:55;;;;;;;3.97;2.70;;;21.30;1.00;;;;;;2604432;54;20163;-61
2024/01/26 01:35:21;;;;;;;2.20;2.10;;;21.30;1.00;;;;;;2604190;54;20258;-63
2024/01/26 01:37:47;;;;;;;2.40;2.20;;;21.30;1.00;;;;;;2603777;54;20174;-61
2024/01/26 01:40:12;;;;;;;2.30;2.20;;;21.20;1.00;;;;;;2602812;47;20174;-62
2024/01/26 01:42:38;;;;;;;2.73;2.53;;;21.30;1.00;;;;;;2602784;54;20171;-62
2024/01/26 01:45:13;;;;;;;2.77;2.40;;;21.20;1.00;;;;;;2603406;54;20158;-62
2024/01/26 01:47:40;;;;;;;2.67;2.37;;;21.20;1.00;;;;;;2604314;31;20867;-63
2024/01/26 01:50:08;;;;;;;2.50;2.30;;;21.20;1.00;;;;;;2603316;54;20427;-62
2024/01/26 01:52:36;;;;;;;2.07;1.90;;;21.30;1.00;;;;;;2603274;54;20489;-62
2024/01/26 01:55:03;;;;;;;2.23;2.13;;;21.20;1.00;;;;;;2604177;54;20436;-63
2024/01/26 01:57:31;;;;;;;3.33;3.03;;;21.30;1.00;;;;;;2603815;54;20438;-62
2024/01/26 01:59:57;;;;;;;2.70;2.50;;;21.30;1.00;;;;;;2603923;54;20474;-62
2024/01/26 02:02:23;;;;;;;3.50;2.70;;;21.30;1.00;;;;;;2603043;47;20490;-62
2024/01/26 02:04:50;;;;;;;3.13;2.83;;;21.30;1.00;;;;;;2603749;51;20245;-64
2024/01/26 02:07:16;;;;;;;2.70;2.50;;;21.30;1.00;;;;;;2604278;54;20437;-62
2024/01/26 02:09:41;;;;;;;3.27;2.43;;;21.30;1.00;;;;;;2603719;54;20428;-63
2024/01/26 02:12:07;;;;;;;2.60;2.40;;;21.20;1.00;;;;;;2603317;54;20180;-62
2024/01/26 02:14:34;;;;;;;2.40;2.20;;;21.20;1.00;;;;;;2603703;54;20155;-62
2024/01/26 02:17:02;;;;;;;2.50;2.30;;;21.20;1.00;;;;;;2603443;39;21044;-62
2024/01/26 02:19:29;;;;;;;3.10;2.77;;;21.20;1.00;;;;;;2604629;54;20424;-64
2024/01/26 02:21:55;;;;;;;2.47;2.27;;;21.20;1.00;;;;;;2603832;54;21591;-62
2024/01/26 02:24:21;;;;;;;2.67;2.47;;;21.20;1.00;;;;;;2604139;39;21345;-63
2024/01/26 02:26:47;;;;;;;2.43;2.23;;;21.20;1.00;;;;;;2603182;54;20167;-64
2024/01/26 02:29:12;;;;;;;3.93;2.40;;;21.20;1.00;;;;;;2603593;54;20669;-64
2024/01/26 02:31:38;;;;;;;2.40;2.20;;;21.20;1.00;;;;;;2604134;47;20180;-64
2024/01/26 02:34:04;;;;;;;3.30;2.60;;;21.20;1.00;;;;;;2605641;54;20435;-62
2024/01/26 02:36:33;;;;;;;2.50;2.30;;;21.20;1.00;;;;;;2605979;39;20604;-62
2024/01/26 02:38:59;;;;;;;2.53;2.33;;;21.20;1.00;;;;;;2605528;39;20961;-62
2024/01/26 02:41:25;;;;;;;2.50;2.30;;;21.20;1.00;;;;;;2605033;54;20435;-62
2024/01/26 02:43:51;;;;;;;2.23;2.10;;;21.20;1.00;;;;;;2605830;47;20274;-65
2024/01/26 02:46:17;;;;;;;2.50;2.30;;;21.20;1.00;;;;;;2603401;47;20170;-62
2024/01/26 02:48:43;;;;;;;2.77;2.30;;;21.20;1.00;;;;;;2604641;54;20206;-63
2024/01/26 02:51:09;;;;;;;2.60;2.40;;;21.20;1.00;;;;;;2603661;47;20423;-63
2024/01/26 02:53:41;;;;;;;2.57;2.27;;;21.20;1.00;;;;;;2603261;54;21316;-62
2024/01/26 02:56:07;;;;;;;2.47;2.27;;;21.20;1.00;;;;;;2603964;31;20672;-63
2024/01/26 02:58:33;;;;;;;2.53;2.27;;;21.20;1.00;;;;;;2603018;47;20501;-64
2024/01/26 03:00:59;;;;;;;3.07;2.33;;;21.20;1.00;;;;;;2604156;47;20439;-60
2024/01/26 03:03:25;;;;;;;2.13;2.03;;;21.20;1.00;;;;;;2602560;54;20559;-61
2024/01/26 03:05:50;;;;;;;2.50;2.30;;;21.10;1.00;;;;;;2603453;54;20247;-64
2024/01/26 03:08:16;;;;;;;2.73;2.13;;;21.20;1.00;;;;;;2604103;39;20313;-62
2024/01/26 03:10:42;;;;;;;2.37;2.20;;;21.20;1.00;;;;;;2602835;54;20163;-64
2024/01/26 03:13:07;;;;;;;2.37;2.17;;;21.10;1.00;;;;;;2603383;54;20160;-61
2024/01/26 03:15:34;;;;;;;2.43;2.23;;;21.10;1.00;;;;;;2603674;54;20217;-63
2024/01/26 03:17:59;;;;;;;2.77;2.40;;;21.20;1.00;;;;;;2603494;54;20182;-64
2024/01/26 03:20:25;;;;;;;2.67;2.47;;;21.20;1.00;;;;;;2603891;54;20428;-62
2024/01/26 03:22:51;;;;;;;1.93;1.83;;;21.20;1.00;;;;;;2603216;54;20154;-63
2024/01/26 03:25:17;;;;;;;2.10;2.00;;;21.20;1.00;;;;;;2603966;39;20979;-63
2024/01/26 03:27:43;;;;;;;2.60;2.40;;;21.10;1.00;;;;;;2602996;54;20162;-63
2024/01/26 03:30:09;;;;;;;2.53;2.33;;;21.20;1.00;;;;;;2603052;47;20231;-63
2024/01/26 03:32:35;;;;;;;2.33;2.20;;;21.20;1.00;;;;;;2603240;54;20293;-62
2024/01/26 03:35:00;;;;;;;1.87;1.73;;;21.10;1.00;;;;;;2604950;54;20422;-63
2024/01/26 03:37:27;;;;;;;1.93;1.83;;;21.10;1.00;;;;;;2602979;54;20175;-62
2024/01/26 03:39:53;;;;;;;2.03;1.93;;;21.10;1.00;;;;;;2603599;54;20238;-65
2024/01/26 03:42:18;;;;;;;2.53;2.33;;;21.10;1.00;;;;;;2603686;54;20507;-62
2024/01/26 03:44:44;;;;;;;3.00;2.13;;;21.10;1.00;;;;;;2603383;54;20458;-63
2024/01/26 03:47:10;;;;;;;2.17;2.07;;;21.10;1.00;;;;;;2604204;54;20181;-63
2024/01/26 03:49:40;;;;;;;2.13;1.93;;;21.10;1.00;;;;;;2604639;31;20644;-62
2024/01/26 03:52:07;;;;;;;1.93;1.80;;;21.10;1.00;;;;;;2603187;54;20423;-63
2024/01/26 03:54:32;;;;;;;2.53;2.33;;;21.10;1.00;;;;;;2604081;54;20425;-60
2024/01/26 03:56:58;;;;;;;2.00;1.90;;;21.10;1.00;;;;;;2603693;54;20449;-62
2024/01/26 03:59:24;;;;;;;2.20;2.00;;;21.10;1.00;;;;;;2605446;39;20230;-63
2024/01/26 04:01:49;;;;;;;2.20;2.10;;;21.10;1.00;;;;;;2604104;54;20187;-61
2024/01/26 04:04:15;;;;;;;2.53;2.33;;;21.10;1.00;;;;;;2605226;54;20173;-61
2024/01/26 04:06:41;;;;;;;1.97;1.77;;;21.10;1.00;;;;;;2604559;39;20604;-60
2024/01/26 04:09:08;;;;;;;2.40;2.20;;;21.10;1.00;;;;;;2604816;54;20259;-61
2024/01/26 04:11:34;;;;;;;2.33;2.13;;;21.10;1.00;;;;;;2604325;47;20424;-61
2024/01/26 04:14:00;;;;;;;2.17;1.97;;;21.10;1.00;;;;;;2602851;54;20434;-60
2024/01/26 04:16:25;;;;;;;3.13;2.10;;;21.00;1.00;;;;;;2604059;54;20163;-63
2024/01/26 04:18:51;;;;;;;1.60;1.50;;;21.00;1.00;;;;;;2603339;54;20197;-61
2024/01/26 04:21:17;;;;;;;2.03;1.93;;;21.00;1.00;;;;;;2603742;54;20167;-60
2024/01/26 04:23:43;;;;;;;1.80;1.70;;;21.00;1.00;;;;;;2603532;54;20171;-61
2024/01/26 04:26:08;;;;;;;1.70;1.60;;;21.00;1.00;;;;;;2602812;54;20159;-60
2024/01/26 04:28:34;;;;;;;2.10;1.90;;;21.00;1.00;;;;;;2603894;54;20158;-60
2024/01/26 04:31:00;;;;;;;2.00;1.80;;;21.00;1.00;;;;;;2602617;54;20167;-61
2024/01/26 04:33:26;;;;;;;2.37;1.80;;;21.00;1.00;;;;;;2602644;47;20159;-62
2024/01/26 04:35:51;;;;;;;1.77;1.67;;;21.00;1.00;;;;;;2603892;54;20444;-61
2024/01/26 04:38:17;;;;;;;2.03;1.93;;;21.00;1.00;;;;;;2603266;54;20682;-60
2024/01/26 04:40:43;;;;;;;1.87;1.77;;;21.00;1.00;;;;;;2603833;54;20170;-60
2024/01/26 04:43:09;;;;;;;2.10;1.90;;;21.00;1.00;;;;;;2604244;54;20432;-62
2024/01/26 04:45:35;;;;;;;2.90;2.40;;;21.00;1.00;;;;;;2603354;54;20166;-61
2024/01/26 04:48:01;;;;;;;2.23;2.10;;;21.00;1.00;;;;;;2603017;54;20176;-60
2024/01/26 04:50:26;;;;;;;1.87;1.77;;;21.00;1.00;;;;;;2603068;54;20424;-63
2024/01/26 04:52:52;;;;;;;2.10;1.90;;;21.00;1.00;;;;;;2603864;54;22019;-60
2024/01/26 04:55:30;;;;;;;1.93;1.83;;;21.00;1.00;;;;;;2603876;39;20839;-62
2024/01/26 04:57:55;;;;;;;2.00;1.90;;;20.90;1.00;;;;;;2603843;39;21213;-62
2024/01/26 05:00:22;;;;;;;1.97;1.87;;;21.00;1.00;;;;;;2603146;54;21383;-62
2024/01/26 05:02:47;;;;;;;2.50;1.87;;;21.00;1.00;;;;;;2602336;51;20210;-62
2024/01/26 05:05:13;;;;;;;2.40;1.90;;;21.00;1.00;;;;;;2603018;54;21015;-64
2024/01/26 05:07:39;;;;;;;1.90;1.80;;;21.00;1.00;;;;;;2603162;47;20175;-62
2024/01/26 05:10:06;;;;;;;3.90;2.47;;;21.00;1.00;;;;;;2603776;54;20995;-63
2024/01/26 05:12:32;;;;;;;5.00;1.67;;;21.00;1.00;;;;;;2604296;54;20197;-63
2024/01/26 05:14:58;;;;;;;1.70;1.60;;;20.90;1.00;;;;;;2604918;54;20439;-62
2024/01/26 05:17:24;;;;;;;2.77;1.70;;;21.00;1.00;;;;;;2604372;54;20442;-62
2024/01/26 05:19:49;;;;;;;1.70;1.60;;;20.90;1.00;;;;;;2604806;54;20158;-63
2024/01/26 05:22:15;;;;;;;9.10;2.50;;;20.90;1.00;;;;;;2604626;54;20436;-61
2024/01/26 05:24:41;;;;;;;2.30;1.70;;;21.00;1.00;;;;;;2605113;39;20511;-62
2024/01/26 05:27:07;;;;;;;5.23;2.17;;;21.00;1.00;;;;;;2605261;54;20686;-63
2024/01/26 05:29:33;;;;;;;2.10;1.90;;;20.90;1.00;;;;;;2604925;39;20669;-61
2024/01/26 05:32:00;;;;;;;3.23;1.83;;;20.90;1.00;;;;;;2605850;54;22501;-62
2024/01/26 05:34:26;;;;;;;2.73;1.73;;;20.90;1.00;;;;;;2604980;54;20423;-62
2024/01/26 05:36:52;;;;;;;1.60;1.50;;;20.90;1.00;;;;;;2604828;39;20807;-62
2024/01/26 05:39:18;;;;;;;2.73;1.70;;;21.00;1.00;;;;;;2604511;54;20458;-62
2024/01/26 05:41:44;;;;;;;2.13;1.40;;;20.90;1.00;;;;;;2605997;39;20542;-62
2024/01/26 05:44:10;;;;;;;1.93;1.40;;;20.90;1.00;;;;;;2605193;54;21363;-62
2024/01/26 05:46:35;;;;;;;1.77;1.67;;;21.00;1.00;;;;;;2605775;54;20160;-61
2024/01/26 05:49:01;;;;;;;1.77;1.40;;;21.00;1.00;;;;;;2605403;54;20436;-62
2024/01/26 05:51:27;;;;;;;3.20;1.40;;;21.00;1.00;;;;;;2604768;54;20166;-62
2024/01/26 05:53:53;;;;;;;2.10;1.70;;;21.00;1.00;;;;;;2604986;47;20269;-64
2024/01/26 05:56:19;;;;;;;1.43;1.33;;;21.00;1.00;;;;;;2604179;54;20166;-62
2024/01/26 05:58:45;;;;;;;3.07;1.70;;;21.00;1.00;;;;;;2604059;54;20436;-62
2024/01/26 06:01:11;;;;;;;1.50;1.40;;;21.00;1.00;;;;;;2603895;54;20434;-59
2024/01/26 06:03:37;;;;;;;1.77;1.63;;;21.00;1.00;;;;;;2602968;47;21415;-61
2024/01/26 06:06:03;;;;;;;1.33;1.23;;;21.10;1.00;;;;;;2603387;54;20279;-61
2024/01/26 06:08:29;;;;;;;1.77;1.47;;;21.10;1.00;;;;;;2603782;54;20174;-62
2024/01/26 06:10:58;;;;;;;1.43;1.33;;;21.10;1.00;;;;;;2604130;54;20450;-61
2024/01/26 06:13:24;;;;;;;1.60;1.50;;;21.10;1.00;;;;;;2603995;47;20538;-62
2024/01/26 06:15:52;;;;;;;2.30;1.30;;;21.10;1.00;;;;;;2604314;54;21836;-63
2024/01/26 06:18:18;;;;;;;2.23;1.30;;;21.10;1.00;;;;;;2603966;39;21147;-64
2024/01/26 06:20:44;;;;;;;4.37;1.90;;;21.20;1.00;;;;;;2603768;54;20431;-66
2024/01/26 06:23:10;;;;;;;1.97;1.77;;;21.30;1.00;;;;;;2604909;54;20461;-64
2024/01/26 06:25:35;;;;;;;2.40;2.00;;;21.30;1.00;;;;;;2606392;47;20179;-64
2024/01/26 06:28:01;;;;;;;2.63;1.80;;;21.40;1.00;;;;;;2605494;54;20177;-64
2024/01/26 06:30:27;;;;;;;2.50;1.80;;;21.40;1.00;;;;;;2604901;39;20343;-65
2024/01/26 06:32:53;;;;;;;3.40;1.70;;;21.40;1.00;;;;;;2603685;54;20162;-64
2024/01/26 06:35:19;;;;;;;5.30;1.90;;;21.40;1.00;;;;;;2604767;39;22954;-64
2024/01/26 06:37:45;;;;;;;5.13;2.33;;;21.50;1.00;;;;;;2604483;54;20162;-64
2024/01/26 06:40:11;;;;;;;3.60;2.30;;;21.50;1.00;;;;;;2604823;54;20156;-64
2024/01/26 06:42:40;;;;;;;6.40;2.67;;;21.50;1.00;;;;;;2604392;47;20186;-63
2024/01/26 06:45:10;;;;;;;3.10;2.17;;;21.30;1.00;;;;;;2602747;39;20873;-65
2024/01/26 06:47:36;;;;;;;3.63;2.57;;;20.80;1.00;;;;;;2603928;54;20427;-67
2024/01/26 06:50:03;;;;;;;3.90;2.30;;;20.80;1.00;;;;;;2604388;54;20455;-68
2024/01/26 06:52:29;;;;;;;3.50;2.23;;;21.00;1.00;;;;;;2602939;54;21648;-67
2024/01/26 06:54:55;;;;;;;6.00;2.50;;;21.20;1.00;;;;;;2603810;54;20443;-63
2024/01/26 06:57:20;;;;;;;2.13;1.70;;;21.30;1.00;;;;;;2598200;54;20443;-63
2024/01/26 06:59:46;;;;;;;7.50;2.63;;;21.40;1.00;;;;;;2603126;54;20169;-63
2024/01/26 07:02:12;;;;;;;6.70;2.07;;;21.40;1.00;;;;;;2601387;54;20263;-66
2024/01/26 07:04:37;;;;;;;4.30;1.87;;;21.40;1.00;;;;;;2602646;54;20193;-63
2024/01/26 07:07:03;;;;;;;3.50;2.10;;;21.50;1.00;;;;;;2603614;54;20162;-67
2024/01/26 07:09:29;;;;;;;5.23;2.37;;;21.50;1.00;;;;;;2604194;31;20650;-64
2024/01/26 07:11:55;;;;;;;3.70;2.00;;;21.50;1.00;;;;;;2604988;47;20199;-64
2024/01/26 07:14:20;;;;;;;5.93;2.10;;;21.50;1.00;;;;;;2605518;54;21456;-63
2024/01/26 07:16:46;;;;;;;4.23;2.03;;;21.50;1.00;;;;;;2602495;39;21469;-61
2024/01/26 07:19:12;;;;;;;4.60;2.40;;;21.50;1.00;;;;;;2603082;54;20217;-62
2024/01/26 07:21:38;;;;;;;5.30;2.17;;;21.50;1.00;;;;;;2603809;39;20925;-62
2024/01/26 07:24:04;;;;;;;2.03;1.77;;;21.50;1.00;;;;;;2603980;54;20184;-64
2024/01/26 07:26:29;;;;;;;2.90;2.33;;;21.50;1.00;;;;;;2602958;54;20178;-64
2024/01/26 07:28:55;;;;;;;4.90;2.00;;;21.50;1.00;;;;;;2603800;54;20429;-64
2024/01/26 07:31:21;;;;;;;4.03;1.93;;;21.50;1.00;;;;;;2602061;47;20201;-64
2024/01/26 07:33:47;;;;;;;3.47;1.90;;;21.50;1.00;;;;;;2603704;54;20166;-63
2024/01/26 07:36:12;;;;;;;3.50;2.00;;;21.50;1.00;;;;;;2605893;39;20583;-63
2024/01/26 07:38:38;;;;;;;6.67;1.80;;;21.50;1.00;;;;;;2603957;54;20286;-65
2024/01/26 07:41:04;;;;;;;2.10;1.90;;;21.50;1.00;;;;;;2603579;47;20202;-63
2024/01/26 07:43:29;;;;;;;4.83;2.13;;;21.50;1.00;;;;;;2603740;54;20206;-64
2024/01/26 07:45:55;;;;;;;5.80;2.00;;;21.50;1.00;;;;;;2602336;49;20174;-66
2024/01/26 07:48:21;;;;;;;2.97;1.70;;;21.50;1.00;;;;;;2604553;54;20262;-63
2024/01/26 07:50:46;;;;;;;2.33;2.10;;;21.50;1.00;;;;;;2603163;54;20159;-65
2024/01/26 07:53:12;;;;;;;1.50;1.40;;;21.50;1.00;;;;;;2603864;47;20818;-64
2024/01/26 07:55:38;;;;;;;2.10;1.90;;;21.50;1.00;;;;;;2603754;47;20795;-64
2024/01/26 07:58:04;;;;;;;4.60;1.93;;;21.30;1.00;;;;;;2604310;54;20170;-64
2024/01/26 08:00:29;;;;;;;6.30;2.50;;;20.90;1.00;;;;;;2604914;54;20449;-64
2024/01/26 08:02:55;;;;;;;5.60;1.93;;;20.70;1.00;;;;;;2602247;54;20190;-65
2024/01/26 08:05:21;;;;;;;2.10;1.43;;;20.30;1.00;;;;;;2603684;54;20151;-64
2024/01/26 08:07:47;;;;;;;6.50;1.87;;;20.40;1.00;;;;;;2603954;39;20581;-63
2024/01/26 08:10:13;;;;;;;2.33;2.03;;;20.50;1.00;;;;;;2604976;39;20583;-64
2024/01/26 08:12:40;;;;;;;2.27;1.70;;;20.60;1.00;;;;;;2602777;54;20427;-64
2024/01/26 08:15:07;;;;;;;1.67;1.57;;;20.70;1.00;;;;;;2603684;54;20247;-63
2024/01/26 08:17:36;;;;;;;4.03;1.80;;;20.90;1.00;;;;;;2603662;47;20444;-64
2024/01/26 08:20:03;;;;;;;2.50;1.80;;;21.00;1.00;;;;;;2603937;54;20538;-64
2024/01/26 08:22:30;;;;;;;2.93;1.27;;;21.10;1.00;;;;;;2603532;54;20440;-64
2024/01/26 08:24:58;;;;;;;1.97;1.60;;;21.10;1.00;;;;;;2604095;47;20546;-62
2024/01/26 08:27:25;;;;;;;1.53;1.20;;;21.20;1.00;;;;;;2603440;54;21315;-63
2024/01/26 08:29:51;;;;;;;1.37;1.27;;;21.20;1.00;;;;;;2603613;39;20868;-61
2024/01/26 08:32:17;;;;;;;1.50;1.23;;;21.20;1.00;;;;;;2603915;47;20553;-61
2024/01/26 08:34:42;;;;;;;2.13;1.60;;;21.30;1.00;;;;;;2605173;54;20181;-62
2024/01/26 08:37:08;;;;;;;1.33;1.17;;;21.30;1.00;;;;;;2604577;54;20263;-62
2024/01/26 08:39:37;;;;;;;2.70;1.50;;;21.30;1.00;;;;;;2604399;54;21387;-63
2024/01/26 08:42:03;;;;;;;1.70;1.40;;;21.30;1.00;;;;;;2604914;54;20160;-62
2024/01/26 08:44:30;;;;;;;1.30;1.20;;;21.30;1.00;;;;;;2604717;54;21710;-62
2024/01/26 08:46:56;;;;;;;2.20;1.23;;;21.30;1.00;;;;;;2604671;54;21051;-62
2024/01/26 08:49:22;;;;;;;1.10;1.00;;;21.30;1.00;;;;;;2604175;54;20567;-62
2024/01/26 08:51:48;;;;;;;2.20;1.43;;;21.40;1.00;;;;;;2604994;54;20436;-63
2024/01/26 08:54:14;;;;;;;1.53;1.20;;;21.30;1.00;;;;;;2605081;54;20176;-62
2024/01/26 08:56:43;;;;;;;3.50;1.40;;;21.30;1.00;;;;;;2603855;54;21497;-63
2024/01/26 08:59:09;;;;;;;1.60;1.30;;;21.40;1.00;;;;;;2605702;39;20513;-62
2024/01/26 09:01:36;;;;;;;1.93;1.30;;;21.40;1.00;;;;;;2604240;54;20454;-62
2024/01/26 09:04:05;;;;;;;4.30;1.30;;;21.30;1.00;;;;;;2603659;54;20427;-63
2024/01/26 09:06:31;;;;;;;2.40;1.17;;;21.30;1.00;;;;;;2603509;54;20434;-62
2024/01/26 09:08:57;;;;;;;1.23;1.00;;;21.30;1.00;;;;;;2603429;54;20434;-63
2024/01/26 09:11:23;;;;;;;1.87;1.37;;;21.30;1.00;;;;;;2603788;39;20661;-62
2024/01/26 09:13:49;;;;;;;1.33;1.20;;;21.30;1.00;;;;;;2603639;54;21060;-62
2024/01/26 09:16:15;;;;;;;2.70;1.20;;;21.30;1.00;;;;;;2603637;54;20162;-63
2024/01/26 09:18:40;;;;;;;1.67;1.43;;;21.30;1.00;;;;;;2604148;39;21134;-63
2024/01/26 09:21:12;;;;;;;1.97;1.27;;;21.30;1.00;;;;;;2603689;54;20177;-62
2024/01/26 09:23:38;;;;;;;2.83;1.33;;;21.40;1.00;;;;;;2604840;39;20555;-62
2024/01/26 09:26:04;;;;;;;1.17;1.00;;;21.30;1.00;;;;;;2604549;54;20462;-63
2024/01/26 09:28:30;;;;;;;1.60;1.50;;;21.40;1.00;;;;;;2605073;39;21213;-63
2024/01/26 09:30:56;;;;;;;1.60;1.40;;;21.40;1.00;;;;;;2606464;39;20839;-62
2024/01/26 09:33:22;;;;;;;1.50;1.40;;;21.40;1.00;;;;;;2605965;54;20174;-62
2024/01/26 09:35:48;;;;;;;3.30;1.60;;;21.40;1.00;;;;;;2605977;47;20170;-62
2024/01/26 09:38:13;;;;;;;1.13;1.00;;;21.40;1.00;;;;;;2605973;54;20986;-61
2024/01/26 09:40:39;;;;;;;1.50;1.37;;;21.40;1.00;;;;;;2605866;54;20159;-63
2024/01/26 09:43:08;;;;;;;1.70;1.33;;;21.40;1.00;;;;;;2605585;54;20480;-62
2024/01/26 09:45:34;;;;;;;2.13;1.30;;;21.40;1.00;;;;;;2606052;54;22092;-63
2024/01/26 09:48:05;;;;;;;4.03;1.43;;;21.40;1.00;;;;;;2604652;54;21803;-63
2024/01/26 09:50:31;;;;;;;2.60;1.33;;;21.40;1.00;;;;;;2606407;54;20159;-63
2024/01/26 09:52:59;;;;;;;1.20;1.10;;;21.40;1.00;;;;;;2604754;39;21063;-62
2024/01/26 09:55:25;;;;;;;1.00;0.90;;;21.40;1.00;;;;;;2604931;47;20434;-64
2024/01/26 09:57:53;;;;;;;2.50;1.20;;;21.40;1.00;;;;;;2605189;54;20440;-63
2024/01/26 10:00:19;;;;;;;1.50;1.20;;;21.40;1.00;;;;;;2605102;54;22583;-63
2024/01/26 10:02:45;;;;;;;1.10;1.00;;;21.40;1.00;;;;;;2601761;54;20460;-62
2024/01/26 10:05:15;;;;;;;1.40;1.30;;;21.40;1.00;;;;;;2604526;51;20544;-64
2024/01/26 10:07:41;;;;;;;1.77;1.20;;;21.40;1.00;;;;;;2603319;52;20163;-66
2024/01/26 10:10:07;;;;;;;1.40;1.10;;;21.40;1.00;;;;;;2604691;54;20412;-64
2024/01/26 10:12:35;;;;;;;2.03;1.33;;;21.40;1.00;;;;;;2604610;54;20167;-64
2024/01/26 10:15:07;;;;;;;1.70;1.30;;;21.40;1.00;;;;;;2605153;54;20416;-63
2024/01/26 10:17:33;;;;;;;1.27;1.17;;;21.40;1.00;;;;;;2604374;54;20520;-64
2024/01/26 10:20:14;;;;;;;1.83;1.33;;;21.40;1.00;;;;;;2603487;54;20421;-64
2024/01/26 10:22:41;;;;;;;1.17;1.07;;;21.40;1.00;;;;;;2603247;54;21084;-64
2024/01/26 10:25:08;;;;;;;1.97;1.20;;;21.40;1.00;;;;;;2604672;54;20416;-64
2024/01/26 10:27:34;;;;;;;1.10;1.00;;;21.40;1.00;;;;;;2603491;54;20952;-62
2024/01/26 10:30:04;;;;;;;1.23;1.10;;;21.40;1.00;;;;;;2605980;54;20473;-65
2024/01/26 10:32:31;;;;;;;1.50;1.23;;;21.40;1.00;;;;;;2604746;54;20156;-63
2024/01/26 10:34:58;;;;;;;1.60;1.13;;;21.40;1.00;;;;;;2605019;54;20416;-64
2024/01/26 10:37:29;;;;;;;2.30;1.37;;;21.40;1.00;;;;;;2605404;54;20424;-62
2024/01/26 10:40:00;;;;;;;1.50;1.10;;;21.40;1.00;;;;;;2604580;54;20431;-63
2024/01/26 10:42:30;;;;;;;1.73;1.00;;;21.40;1.00;;;;;;2605554;54;20470;-63
2024/01/26 10:44:58;;;;;;;1.10;1.00;;;21.40;1.00;;;;;;2604153;47;20429;-62
2024/01/26 10:47:25;;;;;;;1.17;1.07;;;21.40;1.00;;;;;;2604475;54;20424;-63
2024/01/26 10:49:54;;;;;;;1.37;1.20;;;21.40;1.00;;;;;;2606176;39;21070;-63
2024/01/26 10:52:20;;;;;;;1.73;1.23;;;21.40;1.00;;;;;;2604139;54;20419;-62
2024/01/26 10:54:47;;;;;;;1.07;0.97;;;21.40;1.00;;;;;;2605806;54;20436;-65
2024/01/26 10:57:14;;;;;;;1.30;1.20;;;21.40;1.00;;;;;;2605293;54;20427;-63
2024/01/26 10:59:41;;;;;;;1.40;1.30;;;21.40;1.00;;;;;;2606217;54;20420;-62
2024/01/26 11:02:31;;;;;;;1.40;1.30;;;21.40;1.00;;;;;;2603070;54;20574;-62
2024/01/26 11:05:07;;;;;;;1.10;1.00;;;21.40;1.00;;;;;;2604908;39;21279;-61
2024/01/26 11:07:37;;;;;;;1.17;1.07;;;21.40;1.00;;;;;;2605485;54;20419;-65
2024/01/26 11:10:05;;;;;;;1.77;1.00;;;21.40;1.00;;;;;;2604821;51;20424;-62
2024/01/26 11:12:34;;;;;;;1.23;1.00;;;21.30;1.00;;;;;;2605326;54;20543;-63
2024/01/26 11:15:18;;;;;;;1.23;1.13;;;21.20;1.00;;;;;;2605628;54;20416;-63
2024/01/26 11:17:52;;;;;;;1.30;1.20;;;21.30;1.00;;;;;;2606076;39;20890;-64
2024/01/26 11:20:25;;;;;;;1.20;1.13;;;21.30;1.00;;;;;;2603190;47;20435;-63
2024/01/26 11:23:11;;;;;;;1.03;1.03;;;21.30;1.00;;;;;;2602832;54;20538;-63
2024/01/26 11:25:37;;;;;;;1.20;0.97;;;21.30;1.00;;;;;;2603601;54;20422;-63
2024/01/26 11:28:05;;;;;;;1.47;1.20;;;21.30;1.00;;;;;;2604718;39;20900;-63
2024/01/26 11:30:30;;;;;;;1.20;1.10;;;21.40;1.00;;;;;;2603482;54;20428;-63
2024/01/26 11:32:57;;;;;;;1.20;1.10;;;21.40;1.00;;;;;;2603159;54;20430;-63
2024/01/26 11:35:23;;;;;;;1.20;1.10;;;21.40;1.00;;;;;;2604005;47;20168;-65
2024/01/26 11:37:53;;;;;;;1.40;1.30;;;21.40;1.00;;;;;;2604241;50;20575;-64
2024/01/26 11:40:20;;;;;;;2.53;1.17;;;21.40;1.00;;;;;;2603973;54;20242;-63
2024/01/26 11:42:47;;;;;;;1.23;1.00;;;21.40;1.00;;;;;;2602852;39;20814;-63
2024/01/26 11:45:32;;;;;;;1.33;1.20;;;21.40;1.00;;;;;;2604222;54;20419;-63
2024/01/26 11:47:58;;;;;;;1.60;0.97;;;21.40;1.00;;;;;;2604378;39;21141;-63
2024/01/26 11:50:23;;;;;;;1.87;1.40;;;21.40;1.00;;;;;;2604236;54;20523;-63
2024/01/26 11:52:50;;;;;;;1.33;1.03;;;21.40;1.00;;;;;;2603171;53;20289;-64
2024/01/26 11:55:16;;;;;;;1.17;1.07;;;21.40;1.00;;;;;;2603904;54;20155;-63
2024/01/26 11:57:41;;;;;;;1.30;1.20;;;21.40;1.00;;;;;;2603025;54;20475;-64
2024/01/26 12:00:10;;;;;;;1.70;1.00;;;21.30;1.00;;;;;;2602963;47;20447;-64
2024/01/26 12:02:38;;;;;;;1.50;1.23;;;21.20;1.00;;;;;;2601799;54;20186;-63
2024/01/26 12:05:04;;;;;;;1.20;1.10;;;21.20;1.00;;;;;;2603179;54;20428;-61
2024/01/26 12:07:30;;;;;;;1.27;1.17;;;21.20;1.00;;;;;;2603961;54;20407;-61
2024/01/26 12:09:58;;;;;;;1.60;1.47;;;21.30;1.00;;;;;;2603418;54;20961;-63
2024/01/26 12:12:24;;;;;;;2.23;1.33;;;21.30;1.00;;;;;;2602847;54;20243;-62
2024/01/26 12:14:50;;;;;;;1.30;1.20;;;21.40;1.00;;;;;;2603960;54;21696;-62
2024/01/26 12:17:16;;;;;;;1.77;1.20;;;21.50;1.00;;;;;;2603101;54;20436;-62
2024/01/26 12:19:42;;;;;;;1.20;1.10;;;21.60;1.00;;;;;;2604771;39;20823;-62
2024/01/26 12:22:09;;;;;;;1.30;1.20;;;21.80;1.00;;;;;;2602486;54;20478;-61
2024/01/26 12:24:35;;;;;;;1.60;1.50;;;21.90;1.00;;;;;;2603716;54;20158;-62
2024/01/26 12:27:02;;;;;;;1.30;1.13;;;22.00;1.00;;;;;;2603208;54;20470;-63
2024/01/26 12:29:29;;;;;;;1.97;1.30;;;22.10;1.00;;;;;;2603463;47;20419;-61
2024/01/26 12:32:12;;;;;;;1.47;1.20;;;22.10;1.00;;;;;;2601975;54;20963;-61
2024/01/26 12:34:38;;;;;;;1.03;1.03;;;22.20;1.00;;;;;;2603309;54;20960;-65
2024/01/26 12:37:09;;;;;;;1.87;1.40;;;22.30;1.00;;;;;;2603661;54;20446;-61
2024/01/26 12:39:35;;;;;;;1.27;1.17;;;22.30;1.00;;;;;;2604348;47;20166;-63
2024/01/26 12:42:01;;;;;;;2.13;1.17;;;22.40;1.00;;;;;;2604630;31;20871;-62
2024/01/26 12:44:31;;;;;;;1.37;1.27;;;22.40;1.00;;;;;;2605257;39;20568;-62
2024/01/26 12:46:58;;;;;;;1.60;1.07;;;22.40;1.00;;;;;;2603489;47;20448;-63
2024/01/26 12:49:24;;;;;;;1.40;1.10;;;22.40;1.00;;;;;;2604709;39;21504;-60
2024/01/26 12:51:54;;;;;;;1.43;1.30;;;22.30;1.00;;;;;;2604143;54;20422;-60
2024/01/26 12:54:20;;;;;;;1.07;0.97;;;22.40;1.00;;;;;;2604047;54;20446;-61